Time;durP1;ratioP1;P1;durP2;ratioP2;P2;SDS_P1;SDS_P2;PMS_P1;PMS_P2;Temp;Humidity;BMP_temperature;BMP_pressure;BME280_temperature;BME280_humidity;BME280_pressure;Samples;Min_cycle;Max_cycle;Signal;HPM_P1;HPM_P2
2022/09/22 00:01:54;;;;;;;2.90;0.90;;;12.90;90.80;;;;;;5032503;28;20388;-67
2022/09/22 00:04:59;;;;;;;3.35;0.90;;;12.60;90.80;;;;;;5032131;28;20048;-67
2022/09/22 00:08:41;;;;;;;3.42;1.00;;;12.40;91.20;;;;;;5032396;28;20044;-67
2022/09/22 00:15:45;;;;;;;2.97;1.27;;;12.10;92.40;;;;;;5032125;28;20045;-67
2022/09/22 00:18:49;;;;;;;3.45;0.85;;;11.80;92.70;;;;;;5032213;28;20052;-67
2022/09/22 00:21:53;;;;;;;1.05;0.50;;;11.70;93.00;;;;;;5032213;28;20396;-68
2022/09/22 00:24:58;;;;;;;4.57;0.70;;;13.40;93.20;;;;;;5031472;28;20045;-67
2022/09/22 00:28:03;;;;;;;4.80;1.10;;;12.10;93.10;;;;;;5032284;28;20040;-67
2022/09/22 00:31:11;;;;;;;5.10;1.60;;;12.00;93.10;;;;;;5031848;28;20053;-67
2022/09/22 00:34:18;;;;;;;4.55;1.60;;;11.70;94.10;;;;;;5031623;28;20056;-68
2022/09/22 00:37:22;;;;;;;4.53;1.50;;;11.50;94.20;;;;;;5031549;28;20045;-68
2022/09/22 00:40:26;;;;;;;6.35;1.30;;;11.40;94.70;;;;;;5031864;28;20036;-68
2022/09/22 00:43:35;;;;;;;3.95;1.35;;;11.30;95.20;;;;;;5031304;28;20500;-68
2022/09/22 00:46:42;;;;;;;2.53;1.42;;;11.20;96.30;;;;;;5031684;28;20048;-69
2022/09/22 00:50:15;;;;;;;4.05;1.33;;;11.10;96.10;;;;;;5031682;28;20492;-67
2022/09/22 00:53:21;;;;;;;3.53;1.00;;;11.00;97.00;;;;;;5032246;28;20040;-69
2022/09/22 00:56:49;;;;;;;2.17;0.70;;;11.10;96.20;;;;;;5031870;28;20040;-68
2022/09/22 00:59:54;;;;;;;1.52;0.80;;;11.20;96.60;;;;;;5031844;28;20519;-68
2022/09/22 01:02:59;;;;;;;2.38;1.02;;;11.20;96.70;;;;;;5030805;28;20049;-67
2022/09/22 01:06:06;;;;;;;3.30;1.10;;;11.20;96.60;;;;;;5031121;28;20048;-67
2022/09/22 01:09:11;;;;;;;3.50;1.30;;;11.20;97.40;;;;;;5031741;28;20056;-67
2022/09/22 01:12:15;;;;;;;1.88;0.93;;;11.10;97.00;;;;;;5031567;28;20045;-68
2022/09/22 01:16:10;;;;;;;3.10;0.80;;;11.10;97.00;;;;;;5031399;28;20044;-68
2022/09/22 01:19:32;;;;;;;2.72;1.00;;;11.00;97.20;;;;;;5031201;28;20048;-68
2022/09/22 01:22:55;;;;;;;;;;;11.00;97.90;;;;;;5031871;28;20062;-68
2022/09/22 01:34:32;;;;;;;1.48;1.00;;;10.50;99.80;;;;;;5029862;28;20045;-69
2022/09/22 01:38:26;;;;;;;3.15;0.95;;;10.30;99.90;;;;;;5030855;28;20044;-66
2022/09/22 01:41:36;;;;;;;1.92;0.90;;;10.40;99.90;;;;;;5030796;28;20044;-67
2022/09/22 01:45:02;;;;;;;1.95;0.65;;;10.40;99.90;;;;;;5030216;28;20381;-68
2022/09/22 01:48:47;;;;;;;1.30;0.60;;;10.50;99.90;;;;;;5031050;28;20052;-67
2022/09/22 01:52:32;;;;;;;4.15;1.02;;;10.40;99.90;;;;;;5030254;28;20036;-67
2022/09/22 01:55:59;;;;;;;3.50;0.90;;;10.30;99.90;;;;;;5030514;28;20215;-68
2022/09/22 02:03:06;;;;;;;1.58;0.93;;;10.30;99.90;;;;;;5029693;28;20032;-68
2022/09/22 02:06:31;;;;;;;3.05;0.90;;;10.20;99.90;;;;;;5030230;28;20500;-67
2022/09/22 02:09:38;;;;;;;1.45;0.80;;;10.20;99.90;;;;;;5030410;28;20048;-68
2022/09/22 02:12:42;;;;;;;2.42;0.90;;;10.10;99.90;;;;;;5029048;28;20036;-67
2022/09/22 02:16:05;;;;;;;1.42;0.85;;;10.10;99.90;;;;;;5030534;28;20064;-67
2022/09/22 02:19:39;;;;;;;2.63;0.80;;;10.00;99.90;;;;;;5030532;28;20052;-67
2022/09/22 02:23:21;;;;;;;2.22;0.88;;;10.10;99.90;;;;;;5030156;28;20036;-69
2022/09/22 02:26:28;;;;;;;1.10;0.73;;;10.20;99.90;;;;;;5030201;28;20057;-68
2022/09/22 02:29:39;;;;;;;3.17;0.80;;;10.10;99.90;;;;;;5030225;28;20044;-68
2022/09/22 02:33:02;;;;;;;1.65;0.80;;;10.00;99.90;;;;;;5029756;28;20539;-69
2022/09/22 02:36:34;;;;;;;2.15;0.90;;;10.20;99.90;;;;;;5030230;28;20048;-68
2022/09/22 02:39:52;;;;;;;3.00;0.90;;;10.20;99.90;;;;;;5029997;28;20045;-67
2022/09/22 02:43:08;;;;;;;1.38;0.68;;;10.00;99.90;;;;;;5029928;28;20043;-68
2022/09/22 02:46:44;;;;;;;2.90;1.00;;;9.80;99.90;;;;;;5030530;28;20068;-68
2022/09/22 02:50:10;;;;;;;2.60;1.20;;;9.80;99.90;;;;;;5030245;28;20063;-67
2022/09/22 02:53:16;;;;;;;1.10;0.70;;;9.70;99.90;;;;;;5029342;28;20042;-68
2022/09/22 02:56:20;;;;;;;2.38;1.00;;;9.60;99.90;;;;;;5030139;28;20472;-68
2022/09/22 02:59:24;;;;;;;1.73;0.90;;;9.60;99.90;;;;;;5029731;28;20037;-69
2022/09/22 03:02:27;;;;;;;2.05;1.25;;;9.70;99.90;;;;;;5029813;28;20037;-67
2022/09/22 03:05:50;;;;;;;1.98;0.90;;;9.80;99.90;;;;;;5028482;28;20112;-67
2022/09/22 03:12:41;;;;;;;2.35;0.70;;;10.20;99.90;;;;;;5029810;28;20268;-67
2022/09/22 03:16:03;;;;;;;1.50;0.95;;;10.20;99.90;;;;;;5029640;28;20053;-68
2022/09/22 03:19:26;;;;;;;2.92;1.15;;;10.00;99.90;;;;;;5029966;28;20396;-69
2022/09/22 03:22:31;;;;;;;2.63;0.90;;;9.90;99.90;;;;;;5029605;28;20047;-67
2022/09/22 03:25:35;;;;;;;1.65;0.85;;;9.90;99.90;;;;;;5031056;28;20037;-69
2022/09/22 03:29:17;;;;;;;2.30;0.80;;;10.20;99.90;;;;;;5033703;28;20037;-68
2022/09/22 03:32:21;;;;;;;1.38;0.70;;;10.10;99.90;;;;;;5032893;28;20520;-68
2022/09/22 03:38:48;;;;;;;2.72;0.93;;;10.10;99.90;;;;;;5033463;28;20052;-68
2022/09/22 03:41:51;;;;;;;1.25;0.80;;;10.10;99.90;;;;;;5033169;28;20052;-68
2022/09/22 03:44:55;;;;;;;1.52;0.80;;;10.10;99.90;;;;;;5032300;28;20423;-67
2022/09/22 03:51:22;;;;;;;1.33;0.90;;;9.90;99.90;;;;;;5032915;28;20038;-67
2022/09/22 03:58:07;;;;;;;1.05;0.70;;;10.40;99.90;;;;;;5033015;28;20036;-67
2022/09/22 04:01:11;;;;;;;2.60;0.80;;;10.40;99.90;;;;;;5032526;28;20044;-67
2022/09/22 04:04:16;;;;;;;1.30;1.00;;;10.40;99.90;;;;;;5031707;28;20040;-67
2022/09/22 04:07:19;;;;;;;1.27;0.88;;;10.30;99.90;;;;;;5032328;28;20044;-68
2022/09/22 04:17:29;;;;;;;1.55;0.90;;;10.00;99.90;;;;;;5032778;28;20232;-67
2022/09/22 04:20:37;;;;;;;3.63;0.98;;;10.30;99.90;;;;;;5032404;28;20044;-69
2022/09/22 04:24:00;;;;;;;3.10;0.90;;;10.30;99.90;;;;;;5030880;28;20398;-69
2022/09/22 04:30:45;;;;;;;;;;;10.10;99.90;;;;;;5032628;28;20528;-67
2022/09/22 04:34:08;;;;;;;3.03;1.25;;;10.10;99.90;;;;;;5031626;28;19916;-68
2022/09/22 04:37:12;;;;;;;1.20;0.73;;;10.00;99.90;;;;;;5031790;28;20044;-68
2022/09/22 04:40:17;;;;;;;1.67;0.90;;;9.90;99.90;;;;;;5032121;28;20049;-68
2022/09/22 04:43:40;;;;;;;3.88;1.30;;;9.80;99.90;;;;;;5031114;28;20042;-68
2022/09/22 04:46:44;;;;;;;1.45;1.00;;;9.70;99.90;;;;;;5031541;28;20552;-68
2022/09/22 04:49:49;;;;;;;1.75;1.40;;;9.60;99.90;;;;;;5031875;28;20033;-68
2022/09/22 04:52:54;;;;;;;2.45;1.00;;;9.60;99.90;;;;;;5031708;28;20037;-67
2022/09/22 04:56:00;;;;;;;7.18;1.27;;;9.50;99.90;;;;;;5031405;28;20045;-67
2022/09/22 04:59:05;;;;;;;6.35;1.50;;;9.70;99.90;;;;;;5032201;28;20038;-67
2022/09/22 05:05:50;;;;;;;8.05;1.42;;;9.60;99.90;;;;;;5031896;28;20484;-66
2022/09/22 05:08:55;;;;;;;3.30;1.25;;;9.60;99.90;;;;;;5031566;28;20041;-68
2022/09/22 05:12:00;;;;;;;7.53;2.08;;;9.70;99.90;;;;;;5031891;28;20033;-68
2022/09/22 05:15:23;;;;;;;5.78;2.03;;;9.70;99.90;;;;;;5031382;28;20030;-68
2022/09/22 05:18:47;;;;;;;24.58;3.38;;;9.60;99.90;;;;;;5031902;28;20045;-67
2022/09/22 05:22:09;;;;;;;12.40;1.50;;;9.60;99.90;;;;;;5031698;28;20053;-68
2022/09/22 05:25:16;;;;;;;7.75;1.30;;;9.50;99.90;;;;;;5030671;28;20048;-68
2022/09/22 05:28:21;;;;;;;13.02;1.40;;;9.50;99.90;;;;;;5032067;28;20465;-68
2022/09/22 05:31:45;;;;;;;15.52;2.20;;;9.60;99.90;;;;;;5032003;28;20040;-68
2022/09/22 05:34:48;;;;;;;2.25;1.20;;;9.50;99.90;;;;;;5031205;28;20048;-67
2022/09/22 05:37:53;;;;;;;4.63;1.50;;;9.50;99.90;;;;;;5031867;28;20045;-68
2022/09/22 05:40:58;;;;;;;2.53;1.23;;;9.60;99.90;;;;;;5031728;28;20037;-68
2022/09/22 05:44:02;;;;;;;8.18;1.23;;;9.60;99.90;;;;;;5031180;28;20053;-68
2022/09/22 05:47:06;;;;;;;6.78;1.52;;;9.60;99.90;;;;;;5031027;28;20037;-67
2022/09/22 05:50:12;;;;;;;6.07;1.30;;;9.80;99.90;;;;;;5031580;28;20041;-67
2022/09/22 05:53:36;;;;;;;4.85;1.20;;;12.40;99.90;;;;;;5030890;28;20045;-69
2022/09/22 05:56:58;;;;;;;5.10;1.67;;;15.70;99.90;;;;;;5031015;28;20048;-68
2022/09/22 06:00:21;;;;;;;9.25;1.20;;;18.70;98.10;;;;;;5031026;28;20044;-68
2022/09/22 06:03:44;;;;;;;10.43;3.83;;;21.20;95.00;;;;;;5028328;28;20500;-67
2022/09/22 06:10:31;;;;;;;2.65;1.30;;;23.00;88.00;;;;;;5026589;28;20070;-68
2022/09/22 06:13:35;;;;;;;6.03;1.40;;;21.60;87.20;;;;;;5026141;28;20396;-67
2022/09/22 06:16:39;;;;;;;7.18;1.85;;;23.10;87.60;;;;;;5029190;28;20052;-66
2022/09/22 06:19:46;;;;;;;13.38;2.90;;;24.10;85.40;;;;;;5020920;28;20049;-67
2022/09/22 06:22:51;;;;;;;3.40;1.63;;;23.50;83.70;;;;;;5030332;28;20045;-68
2022/09/22 06:26:14;;;;;;;3.38;1.40;;;24.20;84.20;;;;;;5029752;28;20124;-67
2022/09/22 06:29:18;;;;;;;3.20;1.75;;;25.00;80.30;;;;;;5029466;28;20487;-67
2022/09/22 06:32:23;;;;;;;3.78;1.60;;;26.10;80.00;;;;;;5010455;28;20049;-67
2022/09/22 06:35:35;;;;;;;3.97;2.10;;;26.20;76.20;;;;;;5029452;28;20048;-67
2022/09/22 06:38:59;;;;;;;3.20;1.45;;;26.20;76.80;;;;;;5018539;28;20056;-67
2022/09/22 06:42:04;;;;;;;10.02;1.95;;;25.30;77.50;;;;;;5024075;28;20073;-68
2022/09/22 06:45:10;;;;;;;4.63;1.80;;;25.60;76.90;;;;;;5027653;28;20033;-67
2022/09/22 06:51:55;;;;;;;5.50;2.42;;;24.30;78.30;;;;;;5023847;28;20033;-67
2022/09/22 06:54:59;;;;;;;4.50;2.60;;;25.00;77.50;;;;;;5014975;28;20404;-67
2022/09/22 06:58:03;;;;;;;4.85;2.53;;;24.10;75.60;;;;;;5029234;28;20036;-67
2022/09/22 07:01:28;;;;;;;4.60;2.40;;;23.80;78.10;;;;;;5032119;28;20040;-68
2022/09/22 07:04:35;;;;;;;4.28;1.98;;;25.10;76.00;;;;;;5047640;28;20498;-68
2022/09/22 07:07:39;;;;;;;3.65;2.45;;;26.40;75.60;;;;;;5032588;28;20044;-68
2022/09/22 07:10:44;;;;;;;4.53;2.33;;;27.50;72.90;;;;;;5015846;28;20045;-68
2022/09/22 07:14:07;;;;;;;4.97;2.35;;;28.40;72.30;;;;;;5032088;28;20064;-68
2022/09/22 07:17:11;;;;;;;2.95;2.00;;;28.10;71.60;;;;;;5032251;28;20046;-67
2022/09/22 07:20:16;;;;;;;4.35;2.10;;;29.40;71.30;;;;;;5026593;28;20430;-68
2022/09/22 07:23:21;;;;;;;6.72;2.47;;;30.30;69.90;;;;;;5025260;28;20040;-67
2022/09/22 07:29:53;;;;;;;4.88;2.30;;;25.90;70.80;;;;;;5030873;28;20462;-67
2022/09/22 07:32:56;;;;;;;4.78;1.88;;;27.30;70.80;;;;;;5030355;28;20032;-67
2022/09/22 07:36:10;;;;;;;3.70;2.17;;;29.20;69.00;;;;;;5029198;28;20060;-68
2022/09/22 07:39:33;;;;;;;3.30;1.70;;;28.10;68.40;;;;;;5029433;28;20056;-67
2022/09/22 07:42:55;;;;;;;3.22;1.90;;;26.90;71.20;;;;;;5030492;28;20060;-68
2022/09/22 07:46:01;;;;;;;4.32;1.90;;;29.00;69.60;;;;;;5032608;28;20499;-67
2022/09/22 07:49:24;;;;;;;5.13;2.28;;;29.80;67.80;;;;;;5032899;28;20048;-67
2022/09/22 07:52:51;;;;;;;4.70;2.05;;;27.90;68.10;;;;;;5022788;28;20036;-68
2022/09/22 07:56:13;;;;;;;3.03;1.70;;;28.50;68.60;;;;;;5032229;28;20044;-67
2022/09/22 07:59:17;;;;;;;3.33;1.67;;;30.20;68.50;;;;;;5028592;28;20040;-68
2022/09/22 08:05:45;;;;;;;6.32;1.75;;;31.60;65.80;;;;;;5018273;28;20038;-67
2022/09/22 08:08:54;;;;;;;2.38;1.42;;;30.80;65.60;;;;;;5026210;28;20045;-67
2022/09/22 08:12:16;;;;;;;3.35;1.48;;;28.50;66.40;;;;;;5024621;28;20037;-67
2022/09/22 08:15:21;;;;;;;4.20;1.42;;;30.40;66.10;;;;;;5026659;28;20040;-68
2022/09/22 08:18:25;;;;;;;4.78;1.67;;;29.10;65.80;;;;;;5028712;28;20044;-66
2022/09/22 08:21:34;;;;;;;2.22;1.20;;;27.30;68.00;;;;;;5033097;28;20064;-67
2022/09/22 08:28:01;;;;;;;3.05;1.73;;;24.90;71.50;;;;;;5028317;28;20061;-66
2022/09/22 08:31:29;;;;;;;8.75;1.95;;;24.50;72.90;;;;;;5030561;28;20032;-67
2022/09/22 08:34:33;;;;;;;3.00;1.30;;;23.90;73.40;;;;;;5030018;28;20495;-66
2022/09/22 08:37:56;;;;;;;3.33;1.52;;;24.20;72.90;;;;;;5030611;28;20044;-67
2022/09/22 08:41:07;;;;;;;2.00;1.30;;;26.00;71.50;;;;;;5032078;28;20060;-66
2022/09/22 08:44:36;;;;;;;2.47;1.45;;;27.30;70.40;;;;;;5030159;28;20038;-67
2022/09/22 08:54:48;;;;;;;3.33;1.20;;;34.50;64.00;;;;;;5030818;28;20033;-68
2022/09/22 08:58:40;;;;;;;1.92;1.20;;;35.50;62.20;;;;;;5029171;28;20044;-68
2022/09/22 09:01:54;;;;;;;3.92;1.23;;;36.20;60.90;;;;;;5014020;28;20045;-68
2022/09/22 09:05:16;;;;;;;1.58;1.02;;;34.90;58.60;;;;;;5030220;28;20049;-68
2022/09/22 09:08:50;;;;;;;1.90;1.05;;;30.80;62.00;;;;;;5030591;28;20048;-67
2022/09/22 09:12:16;;;;;;;3.47;1.60;;;33.30;61.10;;;;;;5028961;28;20040;-67
2022/09/22 09:15:55;;;;;;;2.15;1.15;;;28.40;64.60;;;;;;5027913;28;20041;-67
2022/09/22 09:19:11;;;;;;;2.95;1.02;;;29.20;63.90;;;;;;5021650;28;20052;-68
2022/09/22 09:22:24;;;;;;;2.42;1.40;;;33.20;60.90;;;;;;5030337;28;20419;-68
2022/09/22 09:29:05;;;;;;;2.17;1.10;;;38.70;57.50;;;;;;5031184;28;20048;-67
2022/09/22 09:32:47;;;;;;;1.95;1.20;;;36.60;54.30;;;;;;5029577;28;20057;-66
2022/09/22 09:39:19;;;;;;;3.33;1.63;;;29.30;62.10;;;;;;5028158;28;20056;-67
2022/09/22 09:42:30;;;;;;;2.42;1.20;;;34.00;60.00;;;;;;5029069;28;20044;-67
2022/09/22 09:45:58;;;;;;;1.52;1.05;;;31.60;58.60;;;;;;5024171;28;20060;-67
2022/09/22 09:49:23;;;;;;;1.60;0.88;;;30.00;61.00;;;;;;5022710;28;20054;-67
2022/09/22 09:52:28;;;;;;;2.20;1.17;;;33.70;59.80;;;;;;5020021;28;20065;-68
2022/09/22 10:02:33;;;;;;;1.38;0.80;;;38.70;54.60;;;;;;5024201;28;20381;-67
2022/09/22 10:06:22;;;;;;;1.33;0.80;;;39.50;53.90;;;;;;5025607;28;20044;-67
2022/09/22 10:09:28;;;;;;;3.45;0.88;;;39.50;53.00;;;;;;5024960;28;20036;-67
2022/09/22 10:12:51;;;;;;;3.10;1.13;;;37.20;53.60;;;;;;5025096;28;20051;-68
2022/09/22 10:19:46;;;;;;;6.00;1.20;;;37.50;54.00;;;;;;5025921;28;20061;-67
2022/09/22 10:22:51;;;;;;;1.33;0.80;;;38.00;53.10;;;;;;5025684;28;20044;-67
2022/09/22 10:26:13;;;;;;;3.78;0.82;;;36.20;54.00;;;;;;5026294;28;20056;-66
2022/09/22 10:29:19;;;;;;;1.25;0.75;;;35.70;53.30;;;;;;5028508;28;20044;-67
2022/09/22 10:33:12;;;;;;;1.58;0.93;;;31.40;56.10;;;;;;5024946;28;20068;-67
2022/09/22 10:36:17;;;;;;;2.83;0.95;;;31.10;56.90;;;;;;5030497;28;20029;-67
2022/09/22 10:39:45;;;;;;;1.90;0.70;;;29.40;59.10;;;;;;5031096;28;20045;-67
2022/09/22 10:43:09;;;;;;;1.17;0.70;;;32.30;57.80;;;;;;5031797;28;20475;-69
2022/09/22 10:46:32;;;;;;;1.35;0.70;;;33.70;54.20;;;;;;5030254;28;20048;-68
2022/09/22 10:49:42;;;;;;;2.58;0.50;;;31.70;55.40;;;;;;5027967;28;20040;-67
2022/09/22 10:53:50;;;;;;;1.40;0.47;;;30.70;55.50;;;;;;5029049;28;20049;-68
2022/09/22 10:56:58;;;;;;;3.72;0.80;;;29.60;56.40;;;;;;5008916;28;20053;-67
2022/09/22 11:00:17;;;;;;;1.00;0.63;;;27.20;57.40;;;;;;5031696;28;20041;-67
2022/09/22 11:03:52;;;;;;;2.42;0.60;;;25.20;59.00;;;;;;5028603;28;20604;-68
2022/09/22 11:14:46;;;;;;;1.35;0.50;;;26.50;59.20;;;;;;5018299;28;20492;-68
2022/09/22 11:18:20;;;;;;;1.25;0.60;;;30.20;57.10;;;;;;5031472;28;20040;-68
2022/09/22 11:21:58;;;;;;;1.67;0.47;;;30.80;54.20;;;;;;5027241;28;20044;-68
2022/09/22 11:25:24;;;;;;;0.52;0.30;;;30.10;55.40;;;;;;5030294;28;20045;-67
2022/09/22 11:28:43;;;;;;;1.05;0.50;;;31.70;54.20;;;;;;5032405;28;20037;-68
2022/09/22 11:32:14;;;;;;;0.80;0.45;;;32.50;53.70;;;;;;5026767;28;20048;-68
2022/09/22 11:38:57;;;;;;;2.55;0.55;;;32.50;53.30;;;;;;5028620;28;20044;-68
2022/09/22 11:42:48;;;;;;;1.17;0.60;;;30.00;55.40;;;;;;5032481;28;20095;-68
2022/09/22 11:46:30;;;;;;;1.73;0.60;;;29.40;56.70;;;;;;5025309;28;20037;-67
2022/09/22 11:50:03;;;;;;;1.50;0.50;;;28.00;56.90;;;;;;5030073;28;20048;-67
2022/09/22 11:53:22;;;;;;;0.50;0.40;;;27.00;57.40;;;;;;5023086;28;20040;-68
2022/09/22 11:56:39;;;;;;;1.30;0.60;;;26.40;58.00;;;;;;5028242;28;20052;-68
2022/09/22 12:00:04;;;;;;;2.53;0.80;;;25.90;58.20;;;;;;5028325;28;20064;-68
2022/09/22 12:03:22;;;;;;;1.65;0.57;;;25.70;58.10;;;;;;5029091;28;20522;-67
2022/09/22 12:06:33;;;;;;;0.80;0.52;;;25.60;59.40;;;;;;5026393;28;20400;-66
2022/09/22 12:09:43;;;;;;;1.92;0.65;;;27.10;58.70;;;;;;5031421;28;20036;-68
2022/09/22 12:13:09;;;;;;;1.95;0.50;;;28.60;56.60;;;;;;5026838;28;20036;-67
2022/09/22 12:17:08;;;;;;;2.95;0.93;;;28.80;55.60;;;;;;5028285;28;20475;-67
2022/09/22 12:20:41;;;;;;;1.70;0.32;;;28.70;56.10;;;;;;5029861;28;20040;-67
2022/09/22 12:23:50;;;;;;;1.17;0.57;;;29.90;54.90;;;;;;5032770;28;20072;-66
2022/09/22 12:30:23;;;;;;;5.22;0.70;;;29.70;55.30;;;;;;5029009;28;20048;-68
2022/09/22 12:33:28;;;;;;;1.30;0.50;;;28.90;56.30;;;;;;5028710;28;20049;-67
2022/09/22 12:36:58;;;;;;;2.28;0.60;;;28.60;56.30;;;;;;5031807;28;20396;-67
2022/09/22 12:40:29;;;;;;;2.22;0.60;;;30.40;55.80;;;;;;5028531;28;20041;-66
2022/09/22 12:43:35;;;;;;;4.00;0.73;;;31.50;54.80;;;;;;5026006;28;20048;-67
2022/09/22 12:46:42;;;;;;;5.97;0.82;;;30.30;55.10;;;;;;5026705;28;20551;-66
2022/09/22 12:50:06;;;;;;;1.95;0.80;;;27.60;56.70;;;;;;5026223;28;20360;-70
2022/09/22 12:53:26;;;;;;;3.72;0.52;;;25.80;58.20;;;;;;5024826;28;20048;-69
2022/09/22 12:56:39;;;;;;;0.70;0.52;;;26.40;58.80;;;;;;5028993;28;20044;-68
2022/09/22 13:00:19;;;;;;;1.05;0.55;;;28.90;56.30;;;;;;5030665;28;20044;-69
2022/09/22 13:03:51;;;;;;;0.73;0.50;;;31.50;54.00;;;;;;5021595;28;20044;-69
2022/09/22 13:07:36;;;;;;;0.80;0.50;;;34.00;53.00;;;;;;5026446;28;20052;-68
2022/09/22 13:11:01;;;;;;;0.90;0.45;;;36.60;51.70;;;;;;5024332;28;20052;-69
2022/09/22 13:14:45;;;;;;;0.77;0.52;;;35.90;50.70;;;;;;5026706;28;20490;-68
2022/09/22 13:18:27;;;;;;;2.17;0.73;;;34.30;51.40;;;;;;5022501;28;20036;-69
2022/09/22 13:21:50;;;;;;;0.90;0.50;;;34.30;50.40;;;;;;5025297;28;20055;-69
2022/09/22 13:24:54;;;;;;;0.80;0.40;;;33.90;51.50;;;;;;5025558;28;20049;-71
2022/09/22 13:28:09;;;;;;;1.95;0.60;;;34.20;52.20;;;;;;5025600;28;20049;-67
2022/09/22 13:31:40;;;;;;;2.50;0.65;;;34.30;51.40;;;;;;5027995;28;20499;-69
2022/09/22 13:34:44;;;;;;;2.77;0.50;;;33.00;51.90;;;;;;5026709;28;20044;-68
2022/09/22 13:38:13;;;;;;;2.58;0.70;;;33.60;52.60;;;;;;5027052;28;20061;-69
2022/09/22 13:41:19;;;;;;;2.92;0.70;;;33.80;52.00;;;;;;5030604;28;20064;-71
2022/09/22 13:45:36;;;;;;;1.00;0.50;;;34.70;52.10;;;;;;5027466;28;20107;-68
2022/09/22 13:48:41;;;;;;;1.30;0.70;;;34.40;51.20;;;;;;5030667;28;20044;-68
2022/09/22 13:51:55;;;;;;;0.93;0.52;;;33.10;51.60;;;;;;5027609;28;20056;-68
2022/09/22 13:55:32;;;;;;;1.70;0.52;;;31.20;52.60;;;;;;5028507;28;20400;-68
2022/09/22 13:58:39;;;;;;;4.78;0.80;;;29.40;54.30;;;;;;5024610;28;20060;-67
2022/09/22 14:01:51;;;;;;;6.28;0.77;;;25.70;57.10;;;;;;5026556;28;20048;-68
2022/09/22 14:05:19;;;;;;;1.42;0.75;;;25.50;58.10;;;;;;5027391;28;20511;-68
2022/09/22 14:09:00;;;;;;;4.03;0.82;;;24.70;58.70;;;;;;5026260;28;20055;-68
2022/09/22 14:12:07;;;;;;;1.40;0.77;;;23.70;60.70;;;;;;5027604;28;20056;-68
2022/09/22 14:15:33;;;;;;;1.00;0.60;;;23.00;61.40;;;;;;5027152;28;20060;-68
2022/09/22 14:18:58;;;;;;;2.20;0.73;;;24.40;59.60;;;;;;5022734;28;20052;-68
2022/09/22 14:22:05;;;;;;;3.15;0.70;;;25.70;58.30;;;;;;5024535;28;20512;-69
2022/09/22 14:25:19;;;;;;;1.45;0.70;;;26.00;58.80;;;;;;5026896;28;20048;-68
2022/09/22 14:28:42;;;;;;;1.13;0.80;;;27.60;56.30;;;;;;5028406;28;20396;-68
2022/09/22 14:32:15;;;;;;;3.72;0.80;;;28.90;55.20;;;;;;5021026;28;20052;-69
2022/09/22 14:35:38;;;;;;;2.15;0.77;;;28.50;55.20;;;;;;5020879;28;20388;-69
2022/09/22 14:39:01;;;;;;;2.00;1.00;;;28.30;56.10;;;;;;5028413;28;20057;-67
2022/09/22 14:42:14;;;;;;;3.60;1.00;;;27.80;57.80;;;;;;5026041;28;20479;-68
2022/09/22 14:45:19;;;;;;;5.15;1.23;;;26.30;59.20;;;;;;5021428;28;20040;-67
2022/09/22 14:48:28;;;;;;;2.53;1.05;;;24.90;60.70;;;;;;5030559;28;20041;-68
2022/09/22 14:51:34;;;;;;;3.78;1.50;;;23.60;62.40;;;;;;5029207;28;20040;-69
2022/09/22 14:54:38;;;;;;;2.17;1.00;;;23.70;63.20;;;;;;5023802;28;20055;-67
2022/09/22 15:05:02;;;;;;;2.97;1.17;;;23.10;63.50;;;;;;5024514;28;20056;-67
2022/09/22 15:08:17;;;;;;;2.47;0.80;;;22.50;63.70;;;;;;5024914;28;20049;-68
2022/09/22 15:11:47;;;;;;;3.63;0.98;;;21.80;65.50;;;;;;5026807;28;20041;-67
2022/09/22 15:15:33;;;;;;;1.60;1.02;;;21.40;66.70;;;;;;5028210;28;20072;-68
2022/09/22 15:22:19;;;;;;;;;;;22.10;67.20;;;;;;5022099;28;20045;-69
2022/09/22 15:25:42;;;;;;;;;;;22.20;67.10;;;;;;5033278;28;19920;-67
2022/09/22 15:29:04;;;;;;;2.78;1.50;;;21.70;67.90;;;;;;5033498;28;19936;-67
2022/09/22 15:32:09;;;;;;;3.50;1.98;;;21.00;69.20;;;;;;5033544;28;20072;-69
2022/09/22 15:35:36;;;;;;;4.07;1.20;;;20.60;69.50;;;;;;5032294;28;20045;-69
2022/09/22 15:39:20;;;;;;;4.70;1.70;;;20.60;70.10;;;;;;5032227;28;20518;-68
2022/09/22 15:42:43;;;;;;;4.03;1.30;;;20.60;69.80;;;;;;5033028;28;20044;-67
2022/09/22 15:45:48;;;;;;;;;;;20.30;70.50;;;;;;5033347;28;20041;-69
2022/09/22 15:52:21;;;;;;;2.95;1.00;;;19.70;71.20;;;;;;5023883;28;20041;-68
2022/09/22 15:55:44;;;;;;;4.85;1.10;;;19.80;71.20;;;;;;5024509;28;20052;-68
2022/09/22 15:59:18;;;;;;;1.35;1.02;;;19.90;71.20;;;;;;5032540;28;20121;-68
2022/09/22 16:05:44;;;;;;;;;;;19.90;71.70;;;;;;5033206;28;20044;-66
2022/09/22 16:09:18;;;;;;;7.30;1.00;;;19.80;72.00;;;;;;5021128;28;19909;-68
2022/09/22 16:13:00;;;;;;;6.75;1.27;;;19.70;71.80;;;;;;5031577;28;20052;-68
2022/09/22 16:16:05;;;;;;;3.08;0.80;;;19.60;71.60;;;;;;5031819;28;20060;-67
2022/09/22 16:19:10;;;;;;;2.00;0.75;;;19.50;71.60;;;;;;5032226;28;20052;-68
2022/09/22 16:22:51;;;;;;;4.65;1.02;;;19.30;71.90;;;;;;5032619;28;20495;-69
2022/09/22 16:25:55;;;;;;;3.20;1.30;;;19.20;71.30;;;;;;5031967;28;20491;-68
2022/09/22 16:29:00;;;;;;;6.93;4.20;;;19.10;72.00;;;;;;5032154;28;20056;-68
2022/09/22 16:32:04;;;;;;;2.30;1.50;;;19.00;72.50;;;;;;5031713;28;20384;-69
2022/09/22 16:35:08;;;;;;;3.13;1.10;;;18.90;73.10;;;;;;5031317;28;20060;-67
2022/09/22 16:38:13;;;;;;;7.82;4.60;;;18.80;72.90;;;;;;5032133;28;20057;-68
2022/09/22 16:41:36;;;;;;;3.42;0.80;;;18.70;73.60;;;;;;5031726;28;20040;-68
2022/09/22 16:44:59;;;;;;;5.15;3.10;;;18.50;74.20;;;;;;5031254;28;20040;-69
2022/09/22 16:51:49;;;;;;;1.67;0.90;;;18.30;74.80;;;;;;5031960;28;20060;-69
2022/09/22 16:54:53;;;;;;;3.40;0.90;;;18.20;74.70;;;;;;5031096;28;20072;-68
2022/09/22 16:57:57;;;;;;;5.90;3.10;;;17.90;74.60;;;;;;5031630;28;20069;-66
2022/09/22 17:01:23;;;;;;;4.57;1.17;;;17.90;74.70;;;;;;5031704;28;20041;-67
2022/09/22 17:04:27;;;;;;;6.53;2.42;;;17.60;75.40;;;;;;5031403;28;20044;-67
2022/09/22 17:07:33;;;;;;;5.20;1.50;;;17.50;76.00;;;;;;5031943;28;20056;-68
2022/09/22 17:10:38;;;;;;;5.55;1.00;;;17.50;76.50;;;;;;5031463;28;20056;-67
2022/09/22 17:13:43;;;;;;;6.00;1.00;;;17.40;77.10;;;;;;5028561;28;20095;-68
2022/09/22 17:17:06;;;;;;;3.03;1.00;;;17.20;77.50;;;;;;5031630;28;20493;-68
2022/09/22 17:20:10;;;;;;;7.22;1.00;;;17.10;78.30;;;;;;5031363;28;20495;-69
2022/09/22 17:23:14;;;;;;;3.40;1.00;;;17.00;78.60;;;;;;5031026;28;20040;-67
2022/09/22 17:26:20;;;;;;;2.28;1.00;;;16.90;79.10;;;;;;5031035;28;20040;-69
2022/09/22 17:29:30;;;;;;;1.60;0.95;;;16.80;79.30;;;;;;5030888;28;20507;-68
2022/09/22 17:32:34;;;;;;;10.77;1.50;;;16.80;79.90;;;;;;5031335;28;20053;-69
2022/09/22 17:35:38;;;;;;;2.10;0.80;;;16.70;80.00;;;;;;5030598;28;20072;-68
2022/09/22 17:38:42;;;;;;;6.40;1.20;;;16.70;80.40;;;;;;5031011;28;20048;-67
2022/09/22 17:41:47;;;;;;;2.53;1.10;;;16.60;80.70;;;;;;5030922;28;20064;-67
2022/09/22 17:44:50;;;;;;;2.70;0.80;;;16.60;80.80;;;;;;5029594;28;20396;-69
2022/09/22 17:58:41;;;;;;;2.08;0.93;;;16.30;80.80;;;;;;5030619;28;19916;-68
2022/09/22 18:01:45;;;;;;;4.22;1.17;;;16.20;80.90;;;;;;5030308;28;20040;-68
2022/09/22 18:04:49;;;;;;;1.67;0.82;;;16.20;80.90;;;;;;5029810;28;20044;-68
2022/09/22 18:07:57;;;;;;;2.60;0.95;;;16.10;80.50;;;;;;5030220;28;20499;-67
2022/09/22 18:11:00;;;;;;;2.83;0.90;;;16.10;79.10;;;;;;5030598;28;20037;-67
2022/09/22 18:14:04;;;;;;;3.53;1.58;;;16.10;79.70;;;;;;5029841;28;20056;-67
2022/09/22 18:17:46;;;;;;;3.72;0.93;;;16.10;79.60;;;;;;5030537;28;20253;-68
2022/09/22 18:21:09;;;;;;;1.83;1.25;;;16.10;79.60;;;;;;5030137;28;20052;-68
2022/09/22 18:24:17;;;;;;;;;;;16.10;79.60;;;;;;5030009;28;20041;-69
2022/09/22 18:27:25;;;;;;;2.20;1.05;;;16.00;79.90;;;;;;5029292;28;19916;-68
2022/09/22 18:30:48;;;;;;;1.13;0.80;;;16.00;80.30;;;;;;5030724;28;20048;-66
2022/09/22 18:37:16;;;;;;;1.65;1.10;;;15.80;79.60;;;;;;5030778;28;20045;-69
2022/09/22 18:40:20;;;;;;;2.13;0.90;;;15.90;80.00;;;;;;5030070;28;20392;-69
2022/09/22 18:43:24;;;;;;;3.47;0.77;;;15.80;79.20;;;;;;5030491;28;20045;-67
2022/09/22 18:46:28;;;;;;;2.17;1.00;;;15.70;79.60;;;;;;5030486;28;20053;-68
2022/09/22 18:49:50;;;;;;;1.35;0.90;;;15.70;80.30;;;;;;5030582;28;20045;-69
2022/09/22 18:52:55;;;;;;;5.65;2.30;;;15.60;80.70;;;;;;5030302;28;20033;-67
2022/09/22 18:56:16;;;;;;;5.63;1.13;;;15.60;81.30;;;;;;5033318;28;20049;-69
2022/09/22 18:59:22;;;;;;;1.80;1.05;;;15.40;81.70;;;;;;5034307;28;20371;-69
2022/09/22 19:02:27;;;;;;;3.00;1.20;;;15.40;81.80;;;;;;5034463;28;20045;-67
2022/09/22 19:05:31;;;;;;;5.18;1.30;;;15.40;82.00;;;;;;5033973;28;20044;-68
2022/09/22 19:08:35;;;;;;;1.70;1.10;;;15.30;82.00;;;;;;5034381;28;20049;-67
2022/09/22 19:11:40;;;;;;;4.43;1.17;;;15.30;82.10;;;;;;5033995;28;20036;-67
2022/09/22 19:15:05;;;;;;;1.85;1.10;;;15.20;82.10;;;;;;5033707;28;20388;-67
2022/09/22 19:18:09;;;;;;;3.97;1.40;;;15.20;83.90;;;;;;5034180;28;20060;-66
2022/09/22 19:21:14;;;;;;;2.08;1.08;;;15.20;85.00;;;;;;5034138;28;20044;-67